Time;durP1;ratioP1;P1;durP2;ratioP2;P2;SDS_P1;SDS_P2;PMS_P1;PMS_P2;Temp;Humidity;BMP_temperature;BMP_pressure;BME280_temperature;BME280_humidity;BME280_pressure;Samples;Min_cycle;Max_cycle;Signal;HPM_P1;HPM_P2
2021/03/06 00:00:21;;;;;;;5.17;4.60;;;;;;;-0.13;77.73;100028.56;5015776;27;104199;-80
2021/03/06 00:02:49;;;;;;;7.13;5.17;;;;;;;-0.28;77.50;100031.31;5016099;27;103199;-80
2021/03/06 00:05:17;;;;;;;6.37;5.00;;;;;;;-0.38;79.82;100027.03;5019196;27;103314;-80
2021/03/06 00:07:45;;;;;;;7.53;5.20;;;;;;;-0.31;79.16;100041.72;5010084;28;104311;-80
2021/03/06 00:10:13;;;;;;;7.47;5.37;;;;;;;-0.55;79.18;100039.28;5001884;27;104813;-80
2021/03/06 00:12:41;;;;;;;5.57;4.93;;;;;;;-0.51;79.38;100035.78;5022468;27;102999;-80
2021/03/06 00:15:10;;;;;;;6.53;4.90;;;;;;;-0.69;79.82;100040.22;4990379;28;103227;-79
2021/03/06 00:17:38;;;;;;;6.37;5.03;;;;;;;-0.60;80.75;100037.59;5020371;27;104701;-79
2021/03/06 00:20:07;;;;;;;7.43;5.33;;;;;;;-0.70;79.12;100046.28;5019371;27;105303;-80
2021/03/06 00:22:35;;;;;;;5.57;4.90;;;;;;;-0.95;80.34;100038.63;5019167;27;104367;-80
2021/03/06 00:25:05;;;;;;;7.77;5.80;;;;;;;-1.19;80.75;100037.03;5006596;27;103452;-80
2021/03/06 00:27:32;;;;;;;6.00;4.47;;;;;;;-1.18;80.97;100041.34;5017835;27;104305;-81
2021/03/06 00:29:59;;;;;;;6.57;5.03;;;;;;;-0.91;80.22;100035.16;5020155;27;104122;-80
2021/03/06 00:32:26;;;;;;;6.63;4.27;;;;;;;-0.71;79.64;100029.00;5021752;27;104341;-80
2021/03/06 00:34:54;;;;;;;5.03;4.53;;;;;;;-0.54;79.63;100033.22;5021346;27;103452;-80
2021/03/06 00:37:21;;;;;;;5.77;4.47;;;;;;;-0.50;79.69;100029.72;5014369;27;104380;-80
2021/03/06 00:39:48;;;;;;;6.67;4.47;;;;;;;-0.43;80.04;100042.66;5007333;27;106473;-80
2021/03/06 00:42:16;;;;;;;5.27;4.40;;;;;;;-0.58;79.59;100034.97;5019103;27;104791;-81
2021/03/06 00:44:43;;;;;;;5.93;5.20;;;;;;;-0.93;81.35;100036.91;5023934;27;104288;-80
2021/03/06 00:47:10;;;;;;;5.80;4.47;;;;;;;-0.74;80.53;100039.41;5018835;27;103843;-81
2021/03/06 00:49:37;;;;;;;7.83;5.10;;;;;;;-0.97;79.69;100042.97;5019134;27;104180;-81
2021/03/06 00:52:07;;;;;;;7.90;4.97;;;;;;;-1.08;80.20;100045.63;5024311;27;104459;-80
2021/03/06 00:54:34;;;;;;;4.90;3.97;;;;;;;-0.87;80.32;100042.91;5017462;27;104029;-81
2021/03/06 00:57:02;;;;;;;4.30;3.30;;;;;;;-0.72;79.71;100037.66;5020838;27;106968;-82
2021/03/06 00:59:30;;;;;;;4.40;3.77;;;;;;;-0.61;79.66;100035.84;5020550;27;103409;-80
2021/03/06 01:01:57;;;;;;;5.93;4.80;;;;;;;-1.07;80.29;100029.22;5015745;27;103411;-80
2021/03/06 01:04:25;;;;;;;6.17;5.23;;;;;;;-1.15;80.66;100024.91;5022666;28;103284;-80
2021/03/06 01:06:52;;;;;;;5.93;4.97;;;;;;;-1.14;80.58;100024.91;5016913;27;104378;-80
2021/03/06 01:09:19;;;;;;;7.20;4.97;;;;;;;-1.20;80.33;100024.91;5019246;27;103930;-80
2021/03/06 01:11:46;;;;;;;5.27;4.10;;;;;;;-0.99;79.86;100027.44;5019049;27;103900;-80
2021/03/06 01:14:13;;;;;;;4.50;4.07;;;;;;;-0.81;79.44;100022.13;5017562;27;103112;-81
2021/03/06 01:16:41;;;;;;;4.73;3.57;;;;;;;-0.72;79.39;100024.66;5021180;27;104621;-80
2021/03/06 01:19:08;;;;;;;5.77;4.43;;;;;;;-0.80;78.83;100018.66;5022477;27;104109;-80
2021/03/06 01:21:35;;;;;;;5.17;4.53;;;;;;;-0.78;79.72;100026.44;5019258;27;103087;-80
2021/03/06 01:24:03;;;;;;;7.87;5.27;;;;;;;-1.08;80.09;100017.09;5005834;27;104640;-80
2021/03/06 01:26:30;;;;;;;6.40;5.20;;;;;;;-1.21;79.90;100025.81;5015800;27;104056;-80
2021/03/06 01:28:56;;;;;;;8.43;4.90;;;;;;;-1.30;80.97;100021.53;5021369;27;105179;-80
2021/03/06 01:31:23;;;;;;;6.03;4.93;;;;;;;-1.37;80.86;100025.00;5022947;27;103119;-81
2021/03/06 01:33:53;;;;;;;7.70;5.17;;;;;;;-1.41;80.54;100025.88;5017452;27;103395;-80
2021/03/06 01:36:20;;;;;;;7.07;4.97;;;;;;;-1.57;81.36;100019.00;5023039;27;106872;-80
2021/03/06 01:38:47;;;;;;;6.17;4.77;;;;;;;-1.59;80.69;100018.16;5016066;27;103769;-81
2021/03/06 01:41:14;;;;;;;8.03;5.40;;;;;;;-1.64;81.78;100024.22;5019237;27;103761;-81
2021/03/06 01:43:41;;;;;;;8.63;5.20;;;;;;;-1.77;82.31;100026.81;5018023;27;104173;-81
2021/03/06 01:46:08;;;;;;;7.40;5.13;;;;;;;-1.59;81.50;100014.69;5007788;27;106697;-81
2021/03/06 01:48:37;;;;;;;5.77;4.80;;;;;;;-1.58;82.22;100019.88;5023486;27;104226;-81
2021/03/06 01:51:05;;;;;;;6.13;5.07;;;;;;;-1.54;82.70;100021.59;5008696;27;103209;-80
2021/03/06 01:53:32;;;;;;;6.43;4.50;;;;;;;-1.31;82.07;100019.78;5025594;28;103244;-81
2021/03/06 01:55:59;;;;;;;5.13;4.27;;;;;;;-1.21;81.28;100011.09;5019194;27;103842;-80
2021/03/06 01:58:27;;;;;;;7.20;4.87;;;;;;;-1.23;80.51;100019.75;5010086;28;106234;-80
2021/03/06 02:00:54;;;;;;;5.67;5.03;;;;;;;-1.34;81.33;100016.34;5016882;27;102772;-81
2021/03/06 02:03:22;;;;;;;5.40;4.50;;;;;;;-1.22;81.27;100014.56;5016842;27;103477;-80
2021/03/06 02:05:49;;;;;;;7.27;5.20;;;;;;;-1.35;80.64;100012.03;5006415;27;104934;-81
2021/03/06 02:08:17;;;;;;;5.43;4.70;;;;;;;-1.32;82.21;100015.47;5015935;27;104465;-81
2021/03/06 02:10:45;;;;;;;7.40;5.03;;;;;;;-1.38;82.01;100012.03;5018936;27;104215;-80
2021/03/06 02:13:28;;;;;;;7.47;5.23;;;;;;;-1.39;82.33;100012.91;5024358;27;104274;-80
2021/03/06 02:16:11;;;;;;;6.07;4.83;;;;;;;-1.49;81.06;100011.22;5015843;27;104773;-80
2021/03/06 02:18:43;;;;;;;6.17;4.07;;;;;;;-1.30;81.45;100015.47;5022544;27;103832;-80
2021/03/06 02:21:23;;;;;;;5.63;4.57;;;;;;;-1.39;80.35;100007.72;5016549;27;103942;-80
2021/03/06 02:24:28;;;;;;;5.50;4.13;;;;;;;-1.31;81.32;100006.81;5016753;27;103903;-80
2021/03/06 02:27:06;;;;;;;5.13;4.10;;;;;;;-1.37;80.07;100003.38;5001304;27;104435;-81
2021/03/06 02:29:44;;;;;;;6.37;4.80;;;;;;;-1.73;81.10;99995.72;5017792;27;105136;-81
2021/03/06 02:32:15;;;;;;;6.37;4.93;;;;;;;-2.03;81.54;99989.75;4989826;27;102937;-81
2021/03/06 02:34:47;;;;;;;5.63;4.00;;;;;;;-2.05;82.28;100001.84;5020702;27;103363;-80
2021/03/06 02:37:17;;;;;;;6.37;4.67;;;;;;;-2.21;81.68;99996.66;5020588;27;105015;-80
2021/03/06 02:39:49;;;;;;;5.17;4.40;;;;;;;-2.30;82.81;100000.13;5012770;28;104850;-80
2021/03/06 02:42:19;;;;;;;5.50;4.47;;;;;;;-2.43;83.23;100001.00;5023415;28;102704;-80
2021/03/06 02:44:49;;;;;;;5.93;5.07;;;;;;;-2.48;82.91;100007.91;5020309;27;103074;-80
2021/03/06 02:47:17;;;;;;;5.20;4.00;;;;;;;-2.67;83.85;99998.41;5015990;27;104631;-81
2021/03/06 02:49:50;;;;;;;7.60;4.70;;;;;;;-2.62;83.24;100001.84;5017245;27;104243;-81
2021/03/06 02:52:16;;;;;;;6.57;4.80;;;;;;;-2.59;82.40;99996.69;5021012;27;103129;-80
2021/03/06 02:54:44;;;;;;;5.53;4.17;;;;;;;-2.71;82.28;100001.84;5015852;27;104507;-80
2021/03/06 02:57:15;;;;;;;4.90;4.37;;;;;;;-2.73;82.50;99994.09;5016867;27;110682;-80
2021/03/06 02:59:58;;;;;;;4.73;4.23;;;;;;;-2.70;82.94;99993.22;5013270;27;107404;-81
2021/03/06 03:02:34;;;;;;;5.63;3.73;;;;;;;-2.41;82.20;99982.00;4981310;27;104225;-81
2021/03/06 03:05:10;;;;;;;5.37;4.00;;;;;;;-2.14;81.70;99995.81;5015054;27;102777;-81
2021/03/06 03:07:49;;;;;;;4.13;3.73;;;;;;;-2.02;81.03;99988.88;5021075;27;106519;-80
2021/03/06 03:10:18;;;;;;;5.80;4.33;;;;;;;-1.98;80.38;99988.03;5022335;27;108491;-80
2021/03/06 03:12:50;;;;;;;4.83;3.60;;;;;;;-1.93;80.27;99980.22;5019558;27;103149;-80
2021/03/06 03:15:23;;;;;;;5.13;4.00;;;;;;;-1.84;80.25;99991.44;5023080;27;104274;-81
2021/03/06 03:17:53;;;;;;;5.50;4.53;;;;;;;-1.93;79.53;99988.88;5017206;27;104245;-81
2021/03/06 03:20:30;;;;;;;4.53;4.13;;;;;;;-1.97;79.28;99984.59;5019007;27;104284;-82
2021/03/06 03:23:02;;;;;;;4.37;3.70;;;;;;;-1.89;79.77;99981.97;5013456;27;102942;-80
2021/03/06 03:25:31;;;;;;;4.07;3.20;;;;;;;-1.83;79.58;99984.53;5016293;27;104034;-82
2021/03/06 03:27:59;;;;;;;3.70;3.30;;;;;;;-1.96;79.75;99985.41;5019985;27;104559;-79
2021/03/06 03:30:28;;;;;;;3.93;3.53;;;;;;;-1.91;79.75;99984.53;5021331;27;106654;-80
2021/03/06 03:32:58;;;;;;;4.87;3.80;;;;;;;-1.94;79.81;99976.81;5010996;27;104311;-80
2021/03/06 03:35:26;;;;;;;3.40;3.00;;;;;;;-1.88;79.77;99989.72;5015170;28;103715;-79
2021/03/06 03:37:55;;;;;;;4.27;3.87;;;;;;;-2.03;78.79;99991.50;5023818;27;104408;-80
2021/03/06 03:40:22;;;;;;;5.17;4.27;;;;;;;-2.42;80.04;99994.97;5002946;27;106933;-81
2021/03/06 03:42:50;;;;;;;4.27;3.87;;;;;;;-2.68;81.12;99994.97;5012074;27;103481;-80
2021/03/06 03:45:20;;;;;;;4.87;3.90;;;;;;;-2.74;81.58;99997.53;5016931;27;104751;-80
2021/03/06 03:47:48;;;;;;;4.67;4.10;;;;;;;-3.01;81.97;100003.53;5005780;27;104346;-81
2021/03/06 03:50:17;;;;;;;7.10;4.37;;;;;;;-2.97;82.69;100005.25;5016426;27;104409;-81
2021/03/06 03:52:46;;;;;;;4.90;4.10;;;;;;;-3.04;82.50;100003.53;5016200;27;103740;-80
2021/03/06 03:55:14;;;;;;;5.03;3.97;;;;;;;-2.98;81.88;100002.69;4995236;27;103275;-80
2021/03/06 03:57:44;;;;;;;5.97;3.93;;;;;;;-2.90;81.71;100007.84;5003818;27;106956;-82
2021/03/06 04:00:14;;;;;;;4.50;3.60;;;;;;;-2.84;81.02;100010.47;5020856;27;107795;-80
2021/03/06 04:02:41;;;;;;;4.20;3.80;;;;;;;-2.70;80.40;100008.75;5020202;27;103107;-81
2021/03/06 04:05:11;;;;;;;3.90;3.47;;;;;;;-2.48;80.74;100020.84;5020727;27;103601;-80
2021/03/06 04:07:43;;;;;;;4.33;3.30;;;;;;;-2.36;80.72;100019.13;5020252;27;104074;-81
2021/03/06 04:10:12;;;;;;;5.07;4.27;;;;;;;-2.66;81.08;100016.50;5025287;27;104381;-79
2021/03/06 04:12:40;;;;;;;4.73;3.93;;;;;;;-3.03;81.77;100020.75;5014911;27;104303;-80
2021/03/06 04:15:09;;;;;;;5.43;4.30;;;;;;;-3.09;82.19;100025.88;5021510;27;103858;-79
2021/03/06 04:17:36;;;;;;;5.67;4.40;;;;;;;-3.20;81.90;100026.75;5010125;27;104420;-80
2021/03/06 04:20:05;;;;;;;6.53;4.20;;;;;;;-3.18;81.76;100025.00;5019030;27;105663;-80
2021/03/06 04:22:33;;;;;;;4.73;4.13;;;;;;;-3.25;81.88;100026.72;5009472;27;103918;-80
2021/03/06 04:25:00;;;;;;;5.73;4.20;;;;;;;-3.27;81.81;100031.00;5006203;27;104675;-80
2021/03/06 04:27:27;;;;;;;5.23;4.13;;;;;;;-3.36;82.08;100025.81;5017523;27;104894;-80
2021/03/06 04:29:54;;;;;;;4.77;4.27;;;;;;;-3.44;82.73;100024.03;4997817;27;105643;-80
2021/03/06 04:32:21;;;;;;;4.23;3.83;;;;;;;-3.35;82.68;100026.66;5022216;27;104248;-82
2021/03/06 04:34:49;;;;;;;4.83;4.03;;;;;;;-3.38;82.27;100027.53;5019102;27;104312;-80
2021/03/06 04:37:16;;;;;;;4.77;4.27;;;;;;;-3.39;82.02;100023.19;5020319;27;103752;-79
2021/03/06 04:39:44;;;;;;;5.07;4.00;;;;;;;-3.34;82.18;100018.91;5007869;27;104248;-81
2021/03/06 04:42:11;;;;;;;5.30;4.10;;;;;;;-3.35;82.79;100024.97;5010278;27;102706;-80
2021/03/06 04:44:38;;;;;;;5.03;3.87;;;;;;;-3.26;82.31;100026.72;5018234;27;104387;-80
2021/03/06 04:47:05;;;;;;;6.00;4.70;;;;;;;-3.25;82.09;100023.25;5017016;27;103584;-83
2021/03/06 04:49:33;;;;;;;4.70;4.07;;;;;;;-3.21;82.03;100031.03;5023282;27;104154;-80
2021/03/06 04:52:00;;;;;;;4.43;4.03;;;;;;;-3.21;82.28;100031.03;5024277;27;103405;-80
2021/03/06 04:54:28;;;;;;;4.63;4.23;;;;;;;-3.24;82.56;100031.03;5016680;27;104388;-82
2021/03/06 04:57:09;;;;;;;5.90;4.77;;;;;;;-3.31;83.01;100029.25;5008531;27;103313;-83
2021/03/06 04:59:36;;;;;;;5.40;4.40;;;;;;;-3.35;82.82;100027.53;5004629;27;106112;-82
2021/03/06 05:02:03;;;;;;;4.93;4.43;;;;;;;-3.37;83.07;100038.72;5026436;27;103946;-82
2021/03/06 05:04:31;;;;;;;5.07;4.00;;;;;;;-3.28;82.32;100036.16;5024227;27;103137;-82
2021/03/06 05:06:58;;;;;;;4.70;4.30;;;;;;;-3.14;82.10;100027.59;4989084;27;106950;-82
2021/03/06 05:09:25;;;;;;;5.93;4.33;;;;;;;-3.05;81.71;100030.22;5023327;27;105799;-82
2021/03/06 05:11:53;;;;;;;5.53;4.47;;;;;;;-2.90;81.34;100028.53;5005737;27;104214;-81
2021/03/06 05:14:21;;;;;;;5.27;4.20;;;;;;;-2.74;81.14;100028.56;5006913;27;104974;-81
2021/03/06 05:16:48;;;;;;;4.97;3.77;;;;;;;-2.64;80.90;100034.66;5017739;27;104286;-85
2021/03/06 05:19:16;;;;;;;4.50;3.70;;;;;;;-2.56;80.55;100027.75;5007744;27;106337;-84
2021/03/06 05:21:43;;;;;;;4.67;4.17;;;;;;;-2.49;80.46;100040.69;5017831;27;104451;-82
2021/03/06 05:24:10;;;;;;;4.90;3.97;;;;;;;-2.46;80.54;100040.69;5016857;27;103562;-84
2021/03/06 05:26:37;;;;;;;4.77;4.07;;;;;;;-2.40;80.13;100042.41;5016171;27;104389;-81
2021/03/06 05:29:04;;;;;;;5.03;4.20;;;;;;;-2.43;79.68;100043.28;5018313;27;104133;-82
2021/03/06 05:31:32;;;;;;;5.73;4.57;;;;;;;-2.52;79.72;100040.69;5024831;27;103020;-81
2021/03/06 05:33:59;;;;;;;5.50;4.50;;;;;;;-2.51;80.78;100037.25;5015697;27;103621;-85
2021/03/06 05:36:26;;;;;;;4.37;3.53;;;;;;;-2.47;80.07;100028.59;5017221;27;104019;-80
2021/03/06 05:38:53;;;;;;;4.90;4.40;;;;;;;-2.42;80.17;100031.22;5017843;27;104330;-79
2021/03/06 05:41:21;;;;;;;5.70;3.83;;;;;;;-2.57;80.01;100031.19;5018168;27;104166;-78
2021/03/06 05:43:48;;;;;;;4.10;3.60;;;;;;;-2.76;80.66;100034.63;5017532;27;102829;-78
2021/03/06 05:46:15;;;;;;;4.90;4.27;;;;;;;-3.05;81.50;100032.81;5017211;27;104237;-79
2021/03/06 05:48:43;;;;;;;6.30;5.03;;;;;;;-2.95;81.96;100037.13;5017880;27;104805;-77
2021/03/06 05:51:11;;;;;;;5.23;3.93;;;;;;;-2.96;82.43;100037.16;5026257;27;102914;-78
2021/03/06 05:53:40;;;;;;;4.57;3.70;;;;;;;-2.85;81.54;100037.16;5021062;27;103276;-78
2021/03/06 05:56:09;;;;;;;6.33;4.43;;;;;;;-2.75;80.86;100031.19;5017163;27;104279;-76
2021/03/06 05:58:36;;;;;;;4.43;4.03;;;;;;;-2.71;80.75;100032.88;5005559;27;108648;-83
2021/03/06 06:01:04;;;;;;;4.40;4.00;;;;;;;-2.71;80.60;100032.88;5016851;27;103445;-77
2021/03/06 06:03:32;;;;;;;6.03;4.80;;;;;;;-2.94;80.79;100038.00;5018557;27;103848;-83
2021/03/06 06:06:00;;;;;;;6.30;4.80;;;;;;;-3.07;82.44;100042.31;5020412;27;104080;-83
2021/03/06 06:08:28;;;;;;;6.10;4.77;;;;;;;-3.27;82.95;100040.47;5018099;27;104282;-83
2021/03/06 06:10:55;;;;;;;5.17;4.67;;;;;;;-3.41;82.98;100043.00;5019590;27;103098;-79
2021/03/06 06:13:22;;;;;;;6.10;4.40;;;;;;;-3.60;83.44;100034.31;5016272;27;103709;-83
2021/03/06 06:15:53;;;;;;;4.97;4.43;;;;;;;-3.67;83.23;100036.84;5019742;27;105098;-79
2021/03/06 06:18:20;;;;;;;5.13;4.30;;;;;;;-3.69;83.58;100043.72;4988599;27;103501;-79
2021/03/06 06:20:48;;;;;;;5.60;5.10;;;;;;;-3.56;83.41;100042.94;5016288;27;103650;-80
2021/03/06 06:23:18;;;;;;;5.07;4.57;;;;;;;-3.57;83.48;100046.38;5003649;27;104790;-82
2021/03/06 06:25:45;;;;;;;7.80;5.00;;;;;;;-3.41;82.79;100048.19;5015202;27;104674;-80
2021/03/06 06:28:19;;;;;;;4.87;4.33;;;;;;;-3.13;81.87;100049.16;5019055;27;104322;-79
2021/03/06 06:31:10;;;;;;;6.60;4.63;;;;;;;-3.00;81.39;100051.78;5006910;27;103500;-80
2021/03/06 06:33:38;;;;;;;6.33;4.87;;;;;;;-3.00;81.37;100046.63;5023639;27;104351;-77
2021/03/06 06:36:06;;;;;;;4.90;4.40;;;;;;;-3.02;81.21;100053.50;5018264;27;104107;-83
2021/03/06 06:38:44;;;;;;;5.17;4.50;;;;;;;-2.95;80.91;100054.41;5016620;27;104005;-81
2021/03/06 06:41:12;;;;;;;6.40;4.40;;;;;;;-2.80;80.85;100053.56;5027136;28;102888;-79
2021/03/06 06:43:39;;;;;;;5.83;4.27;;;;;;;-2.69;80.67;100054.44;5026124;27;102877;-81
2021/03/06 06:46:06;;;;;;;5.83;4.73;;;;;;;-2.58;80.38;100055.38;5019635;27;104234;-79
2021/03/06 06:48:33;;;;;;;4.57;4.17;;;;;;;-2.48;80.08;100051.91;5017783;27;104163;-82
2021/03/06 06:51:08;;;;;;;5.03;4.17;;;;;;;-2.23;79.48;100056.25;5015918;27;104541;-82
2021/03/06 06:53:35;;;;;;;6.20;4.57;;;;;;;-2.31;79.36;100059.69;5017033;27;104407;-85
2021/03/06 06:56:21;;;;;;;5.40;4.73;;;;;;;-2.28;79.78;100065.75;5013704;27;107217;-86
2021/03/06 06:58:48;;;;;;;4.93;4.13;;;;;;;-2.22;79.08;100063.16;5005931;27;103825;-85
2021/03/06 07:01:32;;;;;;;6.70;4.40;;;;;;;-2.14;78.43;100061.44;5015883;27;103755;-84
2021/03/06 07:04:01;;;;;;;4.97;4.23;;;;;;;-2.12;77.83;100056.22;5003846;27;104132;-85
2021/03/06 07:06:28;;;;;;;4.83;4.43;;;;;;;-2.02;77.84;100066.59;5016163;27;103599;-85
2021/03/06 07:09:09;;;;;;;5.10;4.60;;;;;;;-1.89;77.37;100070.91;5017004;27;104633;-86
2021/03/06 07:11:38;;;;;;;5.73;4.80;;;;;;;-1.58;77.57;100063.94;5018225;27;104186;-86
2021/03/06 07:14:06;;;;;;;4.80;4.10;;;;;;;-1.47;76.73;100069.97;5016328;27;103534;-85
2021/03/06 07:16:56;;;;;;;4.63;4.17;;;;;;;-1.33;75.33;100068.22;5014564;27;105044;-87
2021/03/06 07:19:25;;;;;;;5.27;4.30;;;;;;;-1.23;74.72;100071.63;5007091;27;107323;-85
2021/03/06 07:21:52;;;;;;;5.20;4.57;;;;;;;-1.09;74.72;100067.25;5016482;27;103008;-86
2021/03/06 07:24:19;;;;;;;4.43;4.03;;;;;;;-1.03;74.77;100077.59;5018183;27;105176;-85
2021/03/06 07:26:52;;;;;;;6.50;4.07;;;;;;;-0.83;73.62;100080.09;5015268;27;104447;-86
2021/03/06 07:29:21;;;;;;;5.00;4.03;;;;;;;-0.72;72.12;100081.78;5019382;27;104145;-88
2021/03/06 07:31:52;;;;;;;5.10;4.60;;;;;;;-0.54;72.59;100077.34;5009570;27;103632;-85
2021/03/06 07:34:21;;;;;;;5.33;4.63;;;;;;;-0.94;71.25;100085.34;5017883;27;104736;-85
2021/03/06 07:36:49;;;;;;;4.57;4.10;;;;;;;-0.63;71.94;100088.66;5015592;27;103953;-84
2021/03/06 07:39:18;;;;;;;4.70;3.87;;;;;;;-0.63;70.39;100084.31;5003041;27;106421;-86
2021/03/06 07:41:54;;;;;;;4.57;4.10;;;;;;;-0.19;69.53;100090.94;5002759;27;104315;-86
2021/03/06 07:44:25;;;;;;;5.33;3.63;;;;;;;-0.31;69.61;100091.06;5019343;27;104059;-87
2021/03/06 07:46:55;;;;;;;4.60;3.53;;;;;;;-0.12;69.72;100090.03;5013931;27;104592;-87
2021/03/06 07:49:28;;;;;;;6.10;3.63;;;;;;;-0.09;68.27;100098.69;5008190;27;105080;-85
2021/03/06 07:51:58;;;;;;;4.40;4.00;;;;;;;0.17;68.15;100089.81;5010859;27;103393;-87
2021/03/06 07:54:25;;;;;;;4.30;3.80;;;;;;;0.77;67.40;100093.53;5018029;27;104430;-84
2021/03/06 07:56:54;;;;;;;4.93;4.00;;;;;;;0.81;66.28;100092.63;5018110;27;103780;-82
2021/03/06 07:59:52;;;;;;;6.00;4.53;;;;;;;0.50;66.40;100097.31;5000447;28;105916;-79
2021/03/06 08:02:33;;;;;;;5.43;4.50;;;;;;;0.59;65.82;100094.59;5016145;27;104235;-82
2021/03/06 08:05:06;;;;;;;6.20;4.33;;;;;;;0.70;66.00;100091.91;4999550;27;104414;-80
2021/03/06 08:07:41;;;;;;;4.93;4.43;;;;;;;0.86;65.17;100098.66;5014422;27;103681;-82
2021/03/06 08:10:10;;;;;;;4.83;3.93;;;;;;;1.89;64.53;100103.31;5015169;27;104444;-84
2021/03/06 08:12:39;;;;;;;4.43;4.03;;;;;;;1.99;64.03;100099.72;5016491;27;104158;-87
2021/03/06 08:15:27;;;;;;;4.90;4.37;;;;;;;2.59;62.86;100095.19;5000767;27;103110;-87
2021/03/06 08:17:55;;;;;;;5.13;4.40;;;;;;;2.79;61.12;100095.69;5017805;27;103688;-83
2021/03/06 08:20:24;;;;;;;5.23;4.00;;;;;;;2.89;60.06;100105.03;5018686;27;104301;-83
2021/03/06 08:23:20;;;;;;;4.93;4.43;;;;;;;2.61;60.84;100098.63;5015031;27;103469;-84
2021/03/06 08:25:49;;;;;;;5.40;4.53;;;;;;;3.20;60.08;100101.84;5017197;27;104557;-84
2021/03/06 08:28:28;;;;;;;4.90;4.37;;;;;;;3.58;59.75;100107.13;5018260;27;104422;-84
2021/03/06 08:30:55;;;;;;;4.67;4.10;;;;;;;4.17;58.69;100090.03;5015113;27;104667;-81
2021/03/06 08:33:24;;;;;;;4.90;4.40;;;;;;;3.87;56.46;100099.47;4998642;27;103282;-84
2021/03/06 08:36:22;;;;;;;4.90;4.40;;;;;;;2.92;60.52;100097.16;5014319;27;104902;-82
2021/03/06 08:38:50;;;;;;;5.63;4.20;;;;;;;4.04;57.90;100099.91;4997904;27;107043;-82
2021/03/06 08:41:17;;;;;;;4.60;4.13;;;;;;;3.80;56.82;100105.72;5013823;27;104455;-82
2021/03/06 08:43:46;;;;;;;5.40;4.30;;;;;;;4.19;58.00;100103.06;5014179;27;103513;-83
2021/03/06 08:46:14;;;;;;;4.90;4.40;;;;;;;3.54;58.20;100107.22;4988728;27;104419;-81
2021/03/06 08:48:43;;;;;;;7.17;5.10;;;;;;;3.60;58.63;100102.69;5016118;27;104282;-83
2021/03/06 08:51:10;;;;;;;5.00;4.57;;;;;;;4.63;58.04;100105.44;5015361;27;105390;-85
2021/03/06 08:53:40;;;;;;;5.70;5.03;;;;;;;5.13;57.00;100104.94;5019556;27;104587;-83
2021/03/06 08:56:07;;;;;;;5.13;4.07;;;;;;;4.23;56.68;100099.47;5016620;27;102956;-83
2021/03/06 08:58:46;;;;;;;5.17;3.53;;;;;;;5.54;56.42;100105.47;5000238;27;108303;-84
2021/03/06 09:01:14;;;;;;;6.40;4.70;;;;;;;5.08;53.37;100103.34;5016931;27;105641;-85
2021/03/06 09:03:43;;;;;;;4.97;4.50;;;;;;;5.33;55.48;100098.25;5006739;28;102749;-84
2021/03/06 09:06:10;;;;;;;4.93;3.97;;;;;;;5.71;56.07;100103.19;5002460;27;103250;-86
2021/03/06 09:08:37;;;;;;;4.67;4.03;;;;;;;5.24;53.36;100108.09;5006018;27;107787;-85
2021/03/06 09:11:05;;;;;;;4.90;4.40;;;;;;;6.08;52.31;100101.19;5017597;27;105791;-85
2021/03/06 09:13:32;;;;;;;4.67;3.93;;;;;;;5.30;51.76;100107.06;5004523;27;104332;-81
2021/03/06 09:16:01;;;;;;;5.00;4.00;;;;;;;6.32;53.54;100089.88;5017805;27;104505;-81
2021/03/06 09:18:30;;;;;;;4.60;4.10;;;;;;;5.80;52.13;100095.06;5014041;27;104416;-80
2021/03/06 09:20:59;;;;;;;5.13;4.63;;;;;;;5.64;50.70;100092.03;5017141;27;103864;-81
2021/03/06 09:23:30;;;;;;;5.93;4.13;;;;;;;5.95;50.44;100094.59;5015323;27;104739;-78
2021/03/06 09:25:58;;;;;;;4.57;4.17;;;;;;;6.88;48.87;100084.44;5015004;27;104070;-79
2021/03/06 09:28:27;;;;;;;6.10;4.17;;;;;;;7.16;48.73;100086.94;5015299;27;103910;-79
2021/03/06 09:30:56;;;;;;;4.37;3.80;;;;;;;7.07;47.02;100084.66;5017638;27;105007;-78
2021/03/06 09:33:30;;;;;;;4.00;3.67;;;;;;;6.43;47.14;100077.25;5021800;27;102937;-79
2021/03/06 09:35:59;;;;;;;3.87;3.47;;;;;;;6.86;46.90;100084.50;5018249;27;103621;-78
2021/03/06 09:38:35;;;;;;;3.67;3.30;;;;;;;6.75;48.21;100083.16;4997622;27;109303;-77
2021/03/06 09:41:02;;;;;;;4.30;3.90;;;;;;;7.48;47.52;100076.94;5003604;28;106684;-77
2021/03/06 09:43:33;;;;;;;4.13;3.57;;;;;;;5.99;47.35;100084.84;5018039;27;103138;-78
2021/03/06 09:46:01;;;;;;;5.27;3.43;;;;;;;5.81;49.06;100083.66;5005874;28;103705;-78
2021/03/06 09:48:30;;;;;;;4.73;3.67;;;;;;;5.53;49.80;100080.16;5002993;27;105596;-78
2021/03/06 09:50:59;;;;;;;3.73;3.43;;;;;;;5.91;51.06;100076.38;5019333;27;104879;-79
2021/03/06 09:53:28;;;;;;;3.80;3.40;;;;;;;5.88;47.87;100072.09;5020749;27;102851;-77
2021/03/06 09:56:06;;;;;;;4.63;3.27;;;;;;;7.38;49.07;100075.53;5017583;27;104077;-87
2021/03/06 09:58:34;;;;;;;5.03;4.03;;;;;;;6.66;46.05;100070.34;5014244;27;104458;-91
2021/03/06 10:01:18;;;;;;;4.17;3.47;;;;;;;6.59;46.75;100069.72;5025977;27;104754;-91
2021/03/06 10:03:48;;;;;;;3.83;3.50;;;;;;;6.34;48.10;100067.03;5017260;27;103125;-92
2021/03/06 10:06:18;;;;;;;6.30;3.87;;;;;;;5.70;50.43;100075.25;5022238;27;103397;-79
2021/03/06 10:08:48;;;;;;;4.47;3.53;;;;;;;5.80;49.35;100081.94;5016886;27;104582;-79
2021/03/06 10:11:16;;;;;;;4.00;3.23;;;;;;;6.61;47.82;100072.28;5019028;27;103846;-79
2021/03/06 10:13:47;;;;;;;3.90;3.50;;;;;;;6.24;48.22;100073.53;5021524;27;103191;-78
2021/03/06 10:16:14;;;;;;;4.20;3.80;;;;;;;6.24;46.71;100076.16;5016148;27;103107;-79
2021/03/06 10:18:41;;;;;;;3.67;3.37;;;;;;;5.34;48.05;100073.72;5016440;27;104427;-79
2021/03/06 10:21:16;;;;;;;4.00;3.60;;;;;;;6.09;48.02;100066.13;5016481;27;103422;-79
2021/03/06 10:23:43;;;;;;;3.80;3.37;;;;;;;6.40;45.99;100066.84;5018665;27;102775;-79
2021/03/06 10:26:22;;;;;;;4.50;3.57;;;;;;;5.91;48.32;100064.13;5026752;27;104524;-79
2021/03/06 10:28:52;;;;;;;3.57;3.20;;;;;;;6.18;46.35;100060.59;5021949;27;104379;-78
2021/03/06 10:31:27;;;;;;;3.50;2.93;;;;;;;7.35;46.47;100064.31;5023944;27;104530;-78
2021/03/06 10:33:54;;;;;;;3.27;2.97;;;;;;;7.41;45.75;100062.28;5022242;27;104137;-78
2021/03/06 10:36:23;;;;;;;4.37;3.50;;;;;;;7.33;45.28;100064.34;5015735;27;102980;-78
2021/03/06 10:38:51;;;;;;;3.70;3.33;;;;;;;5.91;46.96;100056.25;5013702;27;104416;-78
2021/03/06 10:41:19;;;;;;;4.07;3.40;;;;;;;6.91;47.75;100053.66;5022104;28;104034;-78
2021/03/06 10:43:53;;;;;;;4.40;4.00;;;;;;;7.00;46.06;100053.31;5003995;27;103102;-79
2021/03/06 10:46:24;;;;;;;3.90;3.60;;;;;;;5.89;46.76;100058.09;5013319;27;104411;-80
2021/03/06 10:48:54;;;;;;;3.73;3.10;;;;;;;6.73;47.46;100054.34;5004414;27;104615;-87
2021/03/06 10:51:23;;;;;;;3.53;3.23;;;;;;;7.39;44.44;100045.72;5013290;27;104492;-88
2021/03/06 10:54:00;;;;;;;5.77;3.60;;;;;;;7.79;42.58;100049.44;5001768;27;103042;-78
2021/03/06 10:56:27;;;;;;;4.60;3.30;;;;;;;7.99;43.91;100041.59;5001440;27;104598;-89
2021/03/06 10:58:55;;;;;;;3.37;3.07;;;;;;;8.08;43.75;100046.50;4994869;27;107626;-80
2021/03/06 11:01:32;;;;;;;3.70;3.27;;;;;;;5.79;46.56;100046.13;5017042;27;104437;-78
2021/03/06 11:04:01;;;;;;;3.90;3.50;;;;;;;5.79;46.78;100048.75;5011764;27;104149;-78
2021/03/06 11:06:30;;;;;;;6.13;3.40;;;;;;;6.92;46.31;100049.25;5011404;27;104122;-80
2021/03/06 11:09:00;;;;;;;3.93;2.93;;;;;;;7.21;45.23;100048.19;5011796;27;103983;-78
2021/03/06 11:11:44;;;;;;;3.40;3.10;;;;;;;6.47;43.82;100040.38;5014396;27;104336;-89
2021/03/06 11:14:22;;;;;;;3.47;3.17;;;;;;;7.58;42.74;100035.34;5015980;27;103139;-88
2021/03/06 11:16:49;;;;;;;3.67;3.33;;;;;;;7.76;41.03;100037.25;5022072;27;103671;-86
2021/03/06 11:19:16;;;;;;;3.30;3.00;;;;;;;7.80;43.94;100033.59;5014239;27;103631;-88
2021/03/06 11:21:44;;;;;;;3.83;3.17;;;;;;;7.84;44.04;100031.69;5005436;27;106171;-90
2021/03/06 11:24:11;;;;;;;4.07;3.17;;;;;;;7.87;43.25;100028.91;5005642;27;103743;-86
2021/03/06 11:26:39;;;;;;;4.30;3.40;;;;;;;7.48;40.36;100034.00;5012507;27;103511;-83
2021/03/06 11:29:07;;;;;;;3.47;2.70;;;;;;;7.57;40.78;100036.28;5013523;27;105147;-89
2021/03/06 11:31:51;;;;;;;3.53;2.80;;;;;;;8.81;40.67;100028.44;5030402;27;104643;-85